^^
Meteo Knjazevac Station Historical Data
Daily Summary for September 24, 2022 Units:  Metric    English   Both
Daily Weekly Monthly Yearly Custom
  High: Low: Average:
Temperature: 21.4 °C 1.3 °C 10.9 °C
Dew Point: 10.7 °C 1.2 °C 6.1 °C
Humidity: 99% 44% 77%
Wind Speed: 23km/h 1.3km/h 9km/h
Wind Gust: 29km/h - -
Wind- - WSW
Pressure: 1022.2 hPa 1019.2 hPa -
Precipitation: 0 mm    
Historical Graphs
 
 
Tabular Data for September 24, 2022
Time Temperature Dew Point Pressure Wind Wind Speed Wind Gust Humidity Rainfall Rate (Hourly) solar Conditions
00:04 4.3 °C 4.2 °C 1021.9 hPa WNW 1.3 km/h 3.2 km/h 99% 0 mm 0 W/m2
00:09 4.2 °C 4.1 °C 1021.9 hPa WNW 3.5 km/h 3.2 km/h 99% 0 mm 0 W/m2
00:14 4.1 °C 3.9 °C 1021.9 hPa West 4.8 km/h 4.8 km/h 99% 0 mm 0 W/m2
00:19 3.9 °C 3.8 °C 1021.9 hPa West 6 km/h 8 km/h 99% 0 mm 0 W/m2
00:24 3.9 °C 3.8 °C 1021.9 hPa West 6.6 km/h 8 km/h 99% 0 mm 0 W/m2
00:29 3.9 °C 3.8 °C 1021.9 hPa West 6.6 km/h 8 km/h 99% 0 mm 0 W/m2
00:34 3.8 °C 3.7 °C 1021.9 hPa West 4.3 km/h 8 km/h 99% 0 mm 0 W/m2
00:39 3.8 °C 3.6 °C 1021.9 hPa West 3.7 km/h 4.8 km/h 99% 0 mm 0 W/m2
00:44 3.7 °C 3.6 °C 1021.9 hPa WNW 3.7 km/h 3.2 km/h 99% 0 mm 0 W/m2
00:49 3.6 °C 3.4 °C 1021.9 hPa WNW 3.9 km/h 4.8 km/h 99% 0 mm 0 W/m2
00:54 3.6 °C 3.4 °C 1021.9 hPa WNW 5.5 km/h 4.8 km/h 99% 0 mm 0 W/m2
00:59 3.5 °C 3.3 °C 1021.9 hPa West 5.3 km/h 4.8 km/h 99% 0 mm 0 W/m2
01:04 3.4 °C 3.3 °C 1021.9 hPa West 5.3 km/h 6.4 km/h 99% 0 mm 0 W/m2
01:09 3.4 °C 3.3 °C 1021.9 hPa West 5.5 km/h 6.4 km/h 99% 0 mm 0 W/m2
01:14 3.3 °C 3.2 °C 1021.9 hPa West 3.9 km/h 4.8 km/h 99% 0 mm 0 W/m2
01:19 3.3 °C 3.2 °C 1021.9 hPa West 4.3 km/h 4.8 km/h 99% 0 mm 0 W/m2
01:24 3.3 °C 3.2 °C 1021.9 hPa WNW 4.8 km/h 5.5 km/h 99% 0 mm 0 W/m2
01:29 3.3 °C 3.2 °C 1021.9 hPa WNW 4.8 km/h 6.4 km/h 99% 0 mm 0 W/m2
01:34 3.3 °C 3.1 °C 1021.9 hPa WNW 5.1 km/h 6.4 km/h 99% 0 mm 0 W/m2
01:39 3.2 °C 3.1 °C 1021.9 hPa West 4 km/h 6.4 km/h 99% 0 mm 0 W/m2
01:44 3.2 °C 3.1 °C 1021.9 hPa West 5.3 km/h 5 km/h 99% 0 mm 0 W/m2
01:49 3.2 °C 3 °C 1021.9 hPa WNW 4.3 km/h 6.4 km/h 99% 0 mm 0 W/m2
01:54 3.2 °C 3 °C 1021.9 hPa WNW 5.1 km/h 4.8 km/h 99% 0 mm 0 W/m2
01:59 3.1 °C 2.9 °C 1021.9 hPa West 4.5 km/h 6.4 km/h 99% 0 mm 0 W/m2
02:04 3.1 °C 2.9 °C 1021.9 hPa WNW 3.1 km/h 6.4 km/h 99% 0 mm 0 W/m2
02:09 3.1 °C 2.9 °C 1021.6 hPa WNW 5 km/h 4.8 km/h 99% 0 mm 0 W/m2
02:14 3 °C 2.8 °C 1021.6 hPa West 5.1 km/h 4.8 km/h 99% 0 mm 0 W/m2
02:19 2.9 °C 2.8 °C 1021.6 hPa WNW 5.3 km/h 6.4 km/h 99% 0 mm 0 W/m2
02:24 2.9 °C 2.8 °C 1021.6 hPa West 4.7 km/h 6.4 km/h 99% 0 mm 0 W/m2
02:29 2.8 °C 2.7 °C 1021.6 hPa WNW 5.5 km/h 4.8 km/h 99% 0 mm 0 W/m2
02:34 2.8 °C 2.7 °C 1021.6 hPa WNW 5.6 km/h 5 km/h 99% 0 mm 0 W/m2
02:39 2.7 °C 2.6 °C 1021.6 hPa WNW 5.5 km/h 6.4 km/h 99% 0 mm 0 W/m2
02:44 2.7 °C 2.6 °C 1021.6 hPa WNW 5.1 km/h 6.4 km/h 99% 0 mm 0 W/m2
02:49 2.7 °C 2.6 °C 1021.6 hPa WNW 4.2 km/h 6.4 km/h 99% 0 mm 0 W/m2
02:54 2.7 °C 2.6 °C 1021.6 hPa WNW 5.5 km/h 4.8 km/h 99% 0 mm 0 W/m2
02:59 2.6 °C 2.4 °C 1021.6 hPa West 5.1 km/h 6.4 km/h 99% 0 mm 0 W/m2
03:04 2.6 °C 2.4 °C 1021.6 hPa West 4.2 km/h 6.4 km/h 99% 0 mm 0 W/m2
03:09 2.4 °C 2.3 °C 1021.6 hPa West 5.5 km/h 5.5 km/h 99% 0 mm 0 W/m2
03:14 2.4 °C 2.3 °C 1021.6 hPa West 6.8 km/h 8 km/h 99% 0 mm 0 W/m2
03:19 2.4 °C 2.3 °C 1021.6 hPa West 5.6 km/h 8 km/h 99% 0 mm 0 W/m2
03:24 2.3 °C 2.2 °C 1021.2 hPa West 5.5 km/h 5 km/h 99% 0 mm 0 W/m2
03:29 2.4 °C 2.3 °C 1021.2 hPa WNW 6 km/h 6.4 km/h 99% 0 mm 0 W/m2
03:34 2.4 °C 2.3 °C 1021.2 hPa WNW 4.2 km/h 6.4 km/h 99% 0 mm 0 W/m2
03:39 2.4 °C 2.3 °C 1021.6 hPa WNW 5.3 km/h 6.4 km/h 99% 0 mm 0 W/m2
03:44 2.4 °C 2.3 °C 1021.6 hPa West 5.5 km/h 6.4 km/h 99% 0 mm 0 W/m2
03:49 2.3 °C 2.2 °C 1021.6 hPa West 5.1 km/h 6.4 km/h 99% 0 mm 0 W/m2
03:54 2.2 °C 2.1 °C 1021.6 hPa West 5.3 km/h 6.4 km/h 99% 0 mm 0 W/m2
03:59 2.2 °C 2 °C 1021.6 hPa West 4.8 km/h 6.4 km/h 99% 0 mm 0 W/m2
04:04 2.1 °C 1.9 °C 1021.6 hPa West 3.7 km/h 4.8 km/h 99% 0 mm 0 W/m2
04:09 2 °C 1.8 °C 1021.6 hPa West 6 km/h 5.8 km/h 99% 0 mm 0 W/m2
04:14 1.9 °C 1.8 °C 1021.6 hPa West 6.3 km/h 5.8 km/h 99% 0 mm 0 W/m2
04:19 1.9 °C 1.8 °C 1021.6 hPa West 6.4 km/h 8 km/h 99% 0 mm 0 W/m2
04:24 2 °C 1.8 °C 1021.6 hPa WNW 5.5 km/h 8 km/h 99% 0 mm 0 W/m2
04:29 2 °C 1.8 °C 1021.6 hPa WNW 5.1 km/h 6.4 km/h 99% 0 mm 0 W/m2
04:34 2 °C 1.8 °C 1021.6 hPa WNW 5.5 km/h 6.4 km/h 99% 0 mm 0 W/m2
04:39 1.9 °C 1.8 °C 1021.6 hPa WNW 6.4 km/h 8 km/h 99% 0 mm 0 W/m2
04:44 2 °C 1.8 °C 1021.6 hPa WNW 5.1 km/h 8 km/h 99% 0 mm 0 W/m2
04:49 2 °C 1.8 °C 1021.6 hPa West 5.3 km/h 4.8 km/h 99% 0 mm 0 W/m2
04:54 1.9 °C 1.8 °C 1021.6 hPa West 5.1 km/h 5 km/h 99% 0 mm 0 W/m2
04:59 1.8 °C 1.7 °C 1021.6 hPa WNW 5.1 km/h 6.4 km/h 99% 0 mm 0 W/m2
05:04 1.8 °C 1.7 °C 1021.6 hPa WNW 4.8 km/h 6.4 km/h 99% 0 mm 0 W/m2
05:09 1.8 °C 1.6 °C 1021.6 hPa WNW 4 km/h 4.8 km/h 99% 0 mm 0 W/m2
05:14 1.7 °C 1.6 °C 1021.6 hPa WNW 4.8 km/h 4.8 km/h 99% 0 mm 0 W/m2
05:19 1.6 °C 1.4 °C 1021.6 hPa WNW 3.7 km/h 4.8 km/h 99% 0 mm 0 W/m2
05:24 1.5 °C 1.3 °C 1021.6 hPa WNW 4.5 km/h 4.3 km/h 99% 0 mm 0 W/m2
05:29 1.5 °C 1.3 °C 1021.6 hPa NW 5.8 km/h 5 km/h 99% 0 mm 0 W/m2
05:34 1.6 °C 1.4 °C 1021.6 hPa NW 4.2 km/h 8 km/h 99% 0 mm 0 W/m2
05:39 1.6 °C 1.4 °C 1021.6 hPa NW 4.7 km/h 4.8 km/h 99% 0 mm 0 W/m2
05:44 1.6 °C 1.4 °C 1021.6 hPa NW 4.3 km/h 4.8 km/h 99% 0 mm 0 W/m2
05:49 1.6 °C 1.4 °C 1021.6 hPa WNW 4.7 km/h 4.8 km/h 99% 0 mm 0 W/m2
05:54 1.6 °C 1.4 °C 1021.6 hPa WNW 4.5 km/h 6.4 km/h 99% 0 mm 0 W/m2
05:59 1.6 °C 1.4 °C 1021.9 hPa WNW 4.5 km/h 4.8 km/h 99% 0 mm 0 W/m2
06:04 1.6 °C 1.4 °C 1021.9 hPa NW 6.1 km/h 8 km/h 99% 0 mm 0 W/m2
06:09 1.6 °C 1.4 °C 1021.6 hPa NW 5.6 km/h 8 km/h 99% 0 mm 0 W/m2
06:14 1.6 °C 1.4 °C 1021.9 hPa WNW 6.1 km/h 8 km/h 99% 0 mm 2 W/m2
06:19 1.6 °C 1.4 °C 1021.9 hPa WNW 5.5 km/h 8 km/h 99% 0 mm 4 W/m2
06:24 1.6 °C 1.4 °C 1021.9 hPa West 5.5 km/h 6.4 km/h 99% 0 mm 6 W/m2
06:29 1.5 °C 1.3 °C 1021.9 hPa West 6 km/h 6.4 km/h 99% 0 mm 10 W/m2
06:34 1.4 °C 1.3 °C 1021.9 hPa WNW 6.1 km/h 8 km/h 99% 0 mm 13 W/m2
06:39 1.4 °C 1.3 °C 1021.9 hPa NW 4.3 km/h 6.4 km/h 99% 0 mm 18 W/m2
06:44 1.3 °C 1.2 °C 1021.9 hPa NW 4.3 km/h 6.4 km/h 99% 0 mm 22 W/m2
06:49 1.3 °C 1.2 °C 1021.9 hPa WNW 4.5 km/h 6.4 km/h 99% 0 mm 26 W/m2
06:54 1.3 °C 1.2 °C 1021.9 hPa WNW 4.7 km/h 4.8 km/h 99% 0 mm 30 W/m2
06:59 1.3 °C 1.2 °C 1021.9 hPa West 5.5 km/h 6.4 km/h 99% 0 mm 34 W/m2
07:04 1.4 °C 1.3 °C 1021.9 hPa West 5.3 km/h 5.8 km/h 99% 0 mm 37 W/m2
07:09 1.4 °C 1.3 °C 1021.9 hPa West 7.2 km/h 8 km/h 99% 0 mm 41 W/m2
07:14 1.5 °C 1.3 °C 1021.9 hPa West 5.3 km/h 9.7 km/h 99% 0 mm 85 W/m2
07:19 1.6 °C 1.4 °C 1021.9 hPa WNW 5.8 km/h 6.4 km/h 99% 0 mm 102 W/m2
07:24 1.7 °C 1.5 °C 1021.9 hPa WNW 5 km/h 8 km/h 99% 0 mm 116 W/m2
07:29 1.8 °C 1.6 °C 1021.9 hPa WNW 6.6 km/h 6.1 km/h 99% 0 mm 133 W/m2
07:34 1.9 °C 1.8 °C 1021.9 hPa WNW 6 km/h 8 km/h 99% 0 mm 148 W/m2
07:39 2.1 °C 1.9 °C 1021.9 hPa WNW 5.1 km/h 8 km/h 99% 0 mm 158 W/m2
07:44 2.3 °C 2.1 °C 1021.9 hPa WNW 4.8 km/h 4.8 km/h 99% 0 mm 177 W/m2
07:49 2.4 °C 2.3 °C 1021.9 hPa WNW 4 km/h 4.8 km/h 99% 0 mm 191 W/m2
07:54 2.6 °C 2.4 °C 1021.9 hPa WNW 4.8 km/h 4.8 km/h 99% 0 mm 205 W/m2
07:59 2.8 °C 2.7 °C 1021.9 hPa West 5.3 km/h 4.8 km/h 99% 0 mm 220 W/m2
08:04 3.1 °C 2.9 °C 1021.9 hPa West 3.7 km/h 4.8 km/h 99% 0 mm 231 W/m2
08:09 3.3 °C 3.2 °C 1021.9 hPa WNW 4.2 km/h 3.5 km/h 99% 0 mm 248 W/m2
08:14 3.7 °C 3.5 °C 1021.9 hPa NW 4.5 km/h 4.8 km/h 99% 0 mm 263 W/m2
08:19 4.1 °C 3.9 °C 1021.9 hPa WNW 5.3 km/h 6.4 km/h 99% 0 mm 280 W/m2
08:24 4.7 °C 4.6 °C 1021.9 hPa WNW 4.3 km/h 8 km/h 99% 0 mm 288 W/m2
08:29 5.6 °C 5.4 °C 1021.9 hPa WNW 4.7 km/h 5.5 km/h 99% 0 mm 310 W/m2
08:34 6.6 °C 6.4 °C 1021.9 hPa WNW 2.9 km/h 2.1 km/h 99% 0 mm 327 W/m2
08:39 7.4 °C 7.3 °C 1021.9 hPa WNW 5.1 km/h 4.7 km/h 99% 0 mm 341 W/m2
08:44 7.9 °C 7.8 °C 1021.9 hPa WNW 4.3 km/h 6.4 km/h 99% 0 mm 357 W/m2
08:49 8.3 °C 8.1 °C 1021.9 hPa West 3.4 km/h 4.8 km/h 98.6% 0 mm 369 W/m2
08:54 9 °C 8.3 °C 1022.2 hPa WSW 2.6 km/h 4.8 km/h 95.8% 0 mm 385 W/m2
08:59 9.7 °C 8.7 °C 1022.2 hPa West 2.7 km/h 3.2 km/h 93.7% 0 mm 398 W/m2
09:04 10.3 °C 8.8 °C 1022.2 hPa NW 5.1 km/h 4 km/h 90.1% 0 mm 414 W/m2
09:09 10.7 °C 9.2 °C 1022.2 hPa ESE 5.8 km/h 6.4 km/h 90.2% 0 mm 429 W/m2
09:14 11.3 °C 9.1 °C 1022.2 hPa ESE 6.6 km/h 8 km/h 86.7% 0 mm 446 W/m2
09:19 11.6 °C 9.1 °C 1022.2 hPa ESE 7.1 km/h 8 km/h 84.8% 0 mm 460 W/m2
09:24 12.1 °C 9.4 °C 1022.2 hPa ESE 5.3 km/h 8 km/h 83.8% 0 mm 473 W/m2
09:29 12.6 °C 9.3 °C 1022.2 hPa SE 7.1 km/h 8 km/h 80.1% 0 mm 483 W/m2
09:34 12.8 °C 9.2 °C 1022.2 hPa SE 6.1 km/h 8 km/h 78.8% 0 mm 499 W/m2
09:39 13.1 °C 9.5 °C 1022.2 hPa SE 7.4 km/h 8 km/h 78.6% 0 mm 510 W/m2
09:44 13.4 °C 9.5 °C 1022.2 hPa SSE 7.6 km/h 9.7 km/h 77.1% 0 mm 520 W/m2
09:49 13.9 °C 10 °C 1021.9 hPa South 6.8 km/h 8 km/h 77.4% 0 mm 532 W/m2
09:54 14.3 °C 10.1 °C 1021.9 hPa SSW 6.1 km/h 8 km/h 76% 0 mm 543 W/m2
09:59 14.6 °C 10 °C 1021.9 hPa SSW 5.6 km/h 8 km/h 74.3% 0 mm 553 W/m2
10:04 14.4 °C 9.7 °C 1021.9 hPa SE 5.1 km/h 4.8 km/h 73.4% 0 mm 567 W/m2
10:09 14.7 °C 10 °C 1021.9 hPa SE 3.2 km/h 6.4 km/h 73.6% 0 mm 575 W/m2
10:14 15.2 °C 10.6 °C 1021.9 hPa SW 4.3 km/h 3.2 km/h 73.9% 0 mm 575 W/m2
10:19 15.7 °C 10.7 °C 1021.9 hPa WSW 4.8 km/h 4.8 km/h 72.6% 0 mm 438 W/m2
10:24 15.8 °C 10.4 °C 1021.9 hPa SW 8.5 km/h 9.7 km/h 70% 0 mm 87 W/m2
10:29 15.8 °C 10.2 °C 1021.6 hPa SSE 9 km/h 11.3 km/h 69.3% 0 mm 87 W/m2
10:34 16.2 °C 10.4 °C 1021.9 hPa South 12.4 km/h 12.9 km/h 68.6% 0 mm 149 W/m2
10:38 16.6 °C 10.1 °C 1021.6 hPa SSW 18.8 km/h 20.9 km/h 65.5% 0 mm 539 W/m2
10:44 16.7 °C 9.8 °C 1021.6 hPa SW 21.7 km/h 24.1 km/h 63.8% 0 mm 639 W/m2
10:49 16.9 °C 9.8 °C 1021.6 hPa SW 17.7 km/h 24.1 km/h 63% 0 mm 655 W/m2
10:54 17.3 °C 10 °C 1021.6 hPa SW 19.6 km/h 12.9 km/h 62.3% 0 mm 664 W/m2
10:59 17.3 °C 9.8 °C 1021.6 hPa SW 20.3 km/h 22.5 km/h 61.3% 0 mm 673 W/m2
11:04 17.4 °C 9.7 °C 1021.6 hPa SW 20.4 km/h 15.4 km/h 60.5% 0 mm 678 W/m2
11:09 17.6 °C 9.8 °C 1021.2 hPa SW 18.5 km/h 20.9 km/h 60.3% 0 mm 687 W/m2
11:14 17.7 °C 9.8 °C 1021.2 hPa SW 19.5 km/h 20.9 km/h 59.8% 0 mm 692 W/m2
11:19 17.9 °C 9.8 °C 1021.2 hPa SW 15.6 km/h 22.5 km/h 59.3% 0 mm 697 W/m2
11:24 18.2 °C 10.1 °C 1021.2 hPa SW 16.6 km/h 19.3 km/h 59.2% 0 mm 704 W/m2
11:29 18.2 °C 9.9 °C 1021.2 hPa SW 20 km/h 14 km/h 58.5% 0 mm 709 W/m2
11:34 18.5 °C 10 °C 1021.2 hPa WSW 17.7 km/h 22.5 km/h 57.8% 0 mm 715 W/m2
11:39 18.6 °C 10.1 °C 1021.2 hPa WSW 18.7 km/h 14 km/h 57.7% 0 mm 720 W/m2
11:44 18.7 °C 10.2 °C 1021.2 hPa WSW 15.1 km/h 19.3 km/h 57.8% 0 mm 714 W/m2
11:49 18.9 °C 10.4 °C 1021.2 hPa SW 15.1 km/h 11.1 km/h 57.7% 0 mm 731 W/m2
11:53 19.2 °C 10.1 °C 1021.2 hPa SW 13.2 km/h 16.1 km/h 55.9% 0 mm 732 W/m2
11:59 19.4 °C 10.1 °C 1021.2 hPa SW 15.4 km/h 10.8 km/h 54.8% 0 mm 737 W/m2
12:04 19.3 °C 9.6 °C 1021.2 hPa SSW 17.5 km/h 19.3 km/h 53.4% 0 mm 743 W/m2
12:09 19.3 °C 9.7 °C 1021.2 hPa SW 16.7 km/h 19.3 km/h 53.7% 0 mm 744 W/m2
12:14 19.5 °C 9.8 °C 1021.2 hPa SW 17.7 km/h 19.3 km/h 53.5% 0 mm 757 W/m2
12:19 19.6 °C 9.6 °C 1021.2 hPa SW 17.4 km/h 20.9 km/h 52.6% 0 mm 758 W/m2
12:24 19.7 °C 10 °C 1020.9 hPa SW 12.6 km/h 7.9 km/h 53.5% 0 mm 733 W/m2
12:29 19.8 °C 9.9 °C 1020.9 hPa SW 9.3 km/h 9 km/h 52.6% 0 mm 783 W/m2
12:34 20 °C 9.8 °C 1020.9 hPa SW 15.6 km/h 12.2 km/h 52% 0 mm 779 W/m2
12:38 20.1 °C 10.1 °C 1020.9 hPa SW 14.3 km/h 17.7 km/h 52.5% 0 mm 715 W/m2
12:44 20.1 °C 9.7 °C 1020.5 hPa SW 15.6 km/h 22.5 km/h 51.1% 0 mm 726 W/m2
12:49 20.1 °C 9.4 °C 1020.5 hPa SSW 17.5 km/h 16.3 km/h 50.3% 0 mm 721 W/m2
12:52 20 °C 9.2 °C 1020.5 hPa SW 19.2 km/h 22.5 km/h 49.8% 0 mm 735 W/m2
12:59 20 °C 9.3 °C 1020.5 hPa SSW 16.9 km/h 19.3 km/h 50.2% 0 mm 781 W/m2
13:04 20.2 °C 9.4 °C 1020.5 hPa SSW 16.7 km/h 19.3 km/h 50% 0 mm 797 W/m2
13:09 20.4 °C 9.8 °C 1020.5 hPa SSW 13.5 km/h 20.9 km/h 50.4% 0 mm 767 W/m2
13:14 20.6 °C 9.7 °C 1020.5 hPa SW 16.1 km/h 14.5 km/h 49.6% 0 mm 748 W/m2
13:19 20.7 °C 9.6 °C 1020.5 hPa SW 13.2 km/h 16.1 km/h 49.2% 0 mm 785 W/m2
13:24 20.8 °C 9.6 °C 1020.5 hPa SW 12.7 km/h 17.7 km/h 48.6% 0 mm 778 W/m2
13:29 20.7 °C 9.3 °C 1020.5 hPa SW 16.7 km/h 15.1 km/h 48.1% 0 mm 764 W/m2
13:34 20.8 °C 9.4 °C 1020.5 hPa SW 16.4 km/h 20.9 km/h 48% 0 mm 758 W/m2
13:39 20.9 °C 9 °C 1020.5 hPa SW 16.6 km/h 19.3 km/h 46.3% 0 mm 757 W/m2
13:44 20.9 °C 8.7 °C 1020.5 hPa SW 19.5 km/h 22.5 km/h 45.7% 0 mm 748 W/m2
13:49 20.9 °C 8.9 °C 1020.2 hPa SW 23 km/h 22.5 km/h 45.9% 0 mm 743 W/m2
13:54 20.9 °C 8.5 °C 1020.2 hPa SW 17.2 km/h 29 km/h 45% 0 mm 476 W/m2
13:59 20.6 °C 8.9 °C 1020.2 hPa SW 11.3 km/h 20.9 km/h 47% 0 mm 342 W/m2
14:04 20.4 °C 8.7 °C 1020.2 hPa SW 17.7 km/h 14.5 km/h 47% 0 mm 654 W/m2
14:09 20.4 °C 8.3 °C 1020.2 hPa SW 17.5 km/h 22.5 km/h 45.7% 0 mm 625 W/m2
14:14 20.6 °C 8.9 °C 1020.2 hPa SW 10.6 km/h 17.7 km/h 47.2% 0 mm 592 W/m2
14:19 20.8 °C 8.9 °C 1020.2 hPa SW 19 km/h 15.4 km/h 46.7% 0 mm 584 W/m2
14:24 20.7 °C 8.3 °C 1020.2 hPa SW 15.8 km/h 22.5 km/h 45% 0 mm 502 W/m2
14:29 20.7 °C 8.7 °C 1019.9 hPa SW 15.6 km/h 19.3 km/h 46.1% 0 mm 463 W/m2
14:34 20.6 °C 8.3 °C 1019.9 hPa SW 15.9 km/h 19.3 km/h 45.4% 0 mm 542 W/m2
14:39 20.7 °C 9 °C 1019.9 hPa SW 10.3 km/h 17.7 km/h 47.2% 0 mm 566 W/m2
14:44 20.8 °C 9.1 °C 1019.9 hPa SW 12.7 km/h 11.3 km/h 47% 0 mm 605 W/m2
14:49 20.9 °C 9.2 °C 1019.9 hPa SSW 11.9 km/h 14.5 km/h 46.9% 0 mm 589 W/m2
14:54 21.2 °C 9.5 °C 1019.9 hPa SSW 15.3 km/h 17.2 km/h 47.3% 0 mm 571 W/m2
14:59 21.3 °C 9.2 °C 1019.9 hPa SSW 15.8 km/h 22.5 km/h 46% 0 mm 574 W/m2
15:04 21.3 °C 8.8 °C 1019.9 hPa SW 17.7 km/h 17.7 km/h 44.8% 0 mm 550 W/m2
15:09 21.3 °C 8.6 °C 1019.9 hPa SW 17.2 km/h 20.9 km/h 44% 0 mm 498 W/m2
15:14 21.2 °C 8.7 °C 1019.9 hPa SW 11.6 km/h 20.9 km/h 44.7% 0 mm 439 W/m2
15:19 21.3 °C 8.9 °C 1019.9 hPa SW 14 km/h 12.9 km/h 45.2% 0 mm 445 W/m2
15:24 21.2 °C 8.9 °C 1019.9 hPa SW 12.1 km/h 16.1 km/h 45.3% 0 mm 366 W/m2
15:29 21.2 °C 9.2 °C 1019.9 hPa SW 13.2 km/h 14.5 km/h 46.1% 0 mm 362 W/m2
15:34 21.1 °C 9 °C 1019.5 hPa SW 13.2 km/h 16.1 km/h 45.8% 0 mm 413 W/m2
15:39 21.2 °C 9 °C 1019.5 hPa SW 10.6 km/h 16.1 km/h 45.7% 0 mm 423 W/m2
15:44 21.2 °C 9.1 °C 1019.5 hPa SSW 12.2 km/h 12.9 km/h 46% 0 mm 379 W/m2
15:49 21.2 °C 9.1 °C 1019.2 hPa SSW 9.8 km/h 14.5 km/h 46% 0 mm 412 W/m2
15:54 21.3 °C 9.7 °C 1019.2 hPa SW 7.6 km/h 11.3 km/h 47.3% 0 mm 392 W/m2
15:59 21.3 °C 9 °C 1019.2 hPa SW 11.6 km/h 9.7 km/h 45.4% 0 mm 399 W/m2
16:04 21.2 °C 9 °C 1019.2 hPa SW 15.4 km/h 17.7 km/h 45.7% 0 mm 396 W/m2
16:09 21.3 °C 9.4 °C 1019.2 hPa SW 11.6 km/h 19.3 km/h 46.8% 0 mm 384 W/m2
16:14 21.3 °C 9.4 °C 1019.2 hPa SSW 11.1 km/h 12.9 km/h 46.6% 0 mm 350 W/m2
16:19 21.4 °C 9.6 °C 1019.2 hPa SSW 9.8 km/h 14.5 km/h 47% 0 mm 334 W/m2
16:24 21.4 °C 9.7 °C 1019.2 hPa SSW 12.2 km/h 12.6 km/h 47.2% 0 mm 308 W/m2
16:29 21.4 °C 9.6 °C 1019.2 hPa SW 13 km/h 19.3 km/h 47% 0 mm 304 W/m2
16:34 21.3 °C 9.4 °C 1019.2 hPa SW 13.5 km/h 14.5 km/h 46.5% 0 mm 276 W/m2
16:39 21.2 °C 9.1 °C 1019.2 hPa SW 14.2 km/h 14.5 km/h 45.8% 0 mm 242 W/m2
16:44 21 °C 9.4 °C 1019.2 hPa SW 16.7 km/h 14.5 km/h 47.4% 0 mm 199 W/m2
16:49 20.8 °C 9.4 °C 1019.2 hPa SW 14.3 km/h 19.3 km/h 48% 0 mm 194 W/m2
16:54 20.7 °C 9.3 °C 1019.2 hPa SW 12.7 km/h 16.1 km/h 48% 0 mm 194 W/m2
16:59 20.6 °C 9.2 °C 1019.2 hPa SW 13.5 km/h 12.9 km/h 48% 0 mm 186 W/m2
17:04 20.6 °C 9.3 °C 1019.2 hPa SW 12.2 km/h 16.1 km/h 48.2% 0 mm 177 W/m2
17:09 20.6 °C 9.3 °C 1019.2 hPa SW 15.9 km/h 14.5 km/h 48.5% 0 mm 165 W/m2
17:14 20.4 °C 9.1 °C 1019.2 hPa SW 12.1 km/h 17.7 km/h 48.3% 0 mm 141 W/m2
17:19 20.3 °C 9.4 °C 1019.2 hPa SW 9 km/h 12.9 km/h 49.4% 0 mm 137 W/m2
17:24 20.3 °C 9.4 °C 1019.2 hPa SW 8.5 km/h 9.7 km/h 49.6% 0 mm 115 W/m2
17:29 20.2 °C 9.4 °C 1019.2 hPa SW 12.7 km/h 11.1 km/h 50% 0 mm 79 W/m2
17:34 20.1 °C 9.4 °C 1019.2 hPa SW 8.7 km/h 14.5 km/h 50.5% 0 mm 88 W/m2
17:39 19.9 °C 9.7 °C 1019.2 hPa SW 5.1 km/h 9.7 km/h 52% 0 mm 86 W/m2
17:44 19.8 °C 9.8 °C 1019.2 hPa SW 6.9 km/h 6.4 km/h 52.4% 0 mm 78 W/m2
17:49 19.7 °C 9.7 °C 1019.2 hPa SW 6.4 km/h 8 km/h 52.7% 0 mm 59 W/m2
17:54 19.5 °C 9.7 °C 1019.2 hPa SW 6.3 km/h 8 km/h 53% 0 mm 46 W/m2
17:59 19.3 °C 9.7 °C 1019.2 hPa SW 6.3 km/h 8 km/h 53.6% 0 mm 41 W/m2
18:04 19.2 °C 9.6 °C 1019.2 hPa SW 5.6 km/h 8 km/h 54% 0 mm 30 W/m2
Knjazevac, Serbia
Compliments of Weather Underground - 2 mb